Time;durP1;ratioP1;P1;durP2;ratioP2;P2;SDS_P1;SDS_P2;PMS_P1;PMS_P2;Temp;Humidity;BMP_temperature;BMP_pressure;BME280_temperature;BME280_humidity;BME280_pressure;Samples;Min_cycle;Max_cycle;Signal;HPM_P1;HPM_P2
2023/10/25 00:02:10;;;;;;;19.05;5.50;;;;;;;-148.15;100.00;61821.78;4909641;29;20044;-93
2023/10/25 00:04:57;;;;;;;19.30;5.43;;;;;;;-148.15;100.00;61821.78;4879634;29;20060;-93
2023/10/25 00:07:22;;;;;;;18.17;5.32;;;;;;;-148.15;100.00;61821.78;4882232;29;20080;-94
2023/10/25 00:12:25;;;;;;;18.45;6.82;;;;;;;-148.15;100.00;61821.78;5050314;23;20054;-93
2023/10/25 00:15:01;;;;;;;14.33;5.97;;;;;;;-148.15;100.00;61821.78;5011407;28;20540;-93
2023/10/25 00:17:49;;;;;;;14.65;5.45;;;;;;;-148.15;100.00;61821.78;5010806;28;20034;-93
2023/10/25 00:20:15;;;;;;;11.90;5.13;;;;;;;-148.15;100.00;61821.78;4975082;28;20494;-93
2023/10/25 00:22:40;;;;;;;12.33;4.80;;;;;;;-148.15;100.00;61821.78;4955856;28;20085;-94
2023/10/25 00:25:06;;;;;;;13.97;4.87;;;;;;;-148.15;100.00;61821.78;4957273;28;20046;-92
2023/10/25 00:27:31;;;;;;;10.57;4.50;;;;;;;-148.15;100.00;61821.78;4982188;28;20118;-93
2023/10/25 00:29:57;;;;;;;14.47;4.53;;;;;;;-148.15;100.00;61821.78;4988369;28;20029;-93
2023/10/25 00:32:23;;;;;;;12.53;4.10;;;;;;;-148.15;100.00;61821.78;4975208;28;20117;-94
2023/10/25 00:34:58;;;;;;;13.43;3.92;;;;;;;-148.15;100.00;61821.78;4975436;28;20026;-93
2023/10/25 00:37:30;;;;;;;7.97;3.97;;;;;;;-148.15;100.00;61821.78;4995003;28;20547;-93
2023/10/25 00:39:56;;;;;;;10.98;4.20;;;;;;;-148.15;100.00;61821.78;5006472;28;20026;-93
2023/10/25 00:42:22;;;;;;;12.63;3.88;;;;;;;-148.15;100.00;61821.78;5001052;28;20125;-93
2023/10/25 00:45:35;;;;;;;11.70;3.73;;;;;;;-48.68;100.00;100150.00;4993188;28;20062;-94
2023/10/25 00:52:02;;;;;;;8.95;3.38;;;;;;;6.09;100.00;100045.16;4991696;23;20449;-93
2023/10/25 00:54:28;;;;;;;8.57;3.78;;;;;;;6.19;100.00;100054.09;4990910;28;20030;-94
2023/10/25 00:56:57;;;;;;;7.17;3.47;;;;;;;6.15;100.00;100050.31;4993192;28;20068;-93
2023/10/25 00:59:23;;;;;;;7.43;3.70;;;;;;;6.28;100.00;100073.06;4991009;28;20030;-93
2023/10/25 01:01:50;;;;;;;8.38;3.90;;;;;;;6.17;100.00;100056.19;4984798;28;20494;-93
2023/10/25 01:04:16;;;;;;;12.40;4.00;;;;;;;6.32;100.00;100070.72;5004447;28;20034;-94
2023/10/25 01:06:41;;;;;;;9.17;3.90;;;;;;;6.25;100.00;100048.81;4993115;28;20029;-94
2023/10/25 01:09:24;;;;;;;14.35;3.95;;;;;;;6.38;100.00;100068.91;5009995;28;20034;-93
2023/10/25 01:11:59;;;;;;;16.87;4.17;;;;;;;6.23;100.00;100049.06;4991989;28;20095;-93
2023/10/25 01:14:38;;;;;;;9.90;3.77;;;;;;;6.21;100.00;100048.50;4990060;28;20376;-92
2023/10/25 01:17:28;;;;;;;14.25;4.03;;;;;;;6.02;100.00;100010.78;4992213;28;20034;-93
2023/10/25 01:19:53;;;;;;;12.88;4.80;;;;;;;6.20;100.00;100029.09;4984766;28;20042;-92
2023/10/25 01:22:23;;;;;;;8.90;3.60;;;;;;;6.34;100.00;100044.66;4990579;28;20129;-93
2023/10/25 01:24:50;;;;;;;11.02;3.63;;;;;;;6.23;100.00;100038.41;4990384;28;20101;-93
2023/10/25 01:27:15;;;;;;;13.07;3.80;;;;;;;6.20;100.00;100034.41;4996408;28;20498;-92
2023/10/25 01:29:42;;;;;;;12.93;3.63;;;;;;;6.20;100.00;100022.94;4987869;28;20065;-94
2023/10/25 01:32:07;;;;;;;7.78;3.25;;;;;;;6.22;100.00;100021.63;4985751;28;20063;-94
2023/10/25 01:34:42;;;;;;;13.23;3.53;;;;;;;6.04;100.00;99985.53;4977692;28;20050;-93
2023/10/25 01:37:07;;;;;;;14.50;3.78;;;;;;;6.24;100.00;100001.97;4990339;28;20537;-93
2023/10/25 01:39:48;;;;;;;8.03;3.67;;;;;;;6.24;100.00;100007.28;4990625;28;20026;-92
2023/10/25 01:42:16;;;;;;;12.85;3.63;;;;;;;6.19;100.00;100002.72;4985385;28;20057;-93
2023/10/25 01:44:53;;;;;;;11.40;3.67;;;;;;;6.21;100.00;100008.59;4989597;28;20031;-94
2023/10/25 01:47:31;;;;;;;7.88;3.05;;;;;;;5.95;100.00;99972.88;5002482;28;20026;-93
2023/10/25 01:50:26;;;;;;;10.07;3.20;;;;;;;6.05;100.00;99978.34;5051606;23;20036;-92
2023/10/25 01:52:51;;;;;;;18.83;3.20;;;;;;;6.05;100.00;99986.31;4952884;29;20050;-93
2023/10/25 01:55:39;;;;;;;6.93;3.27;;;;;;;5.91;100.00;99970.72;4949316;28;20023;-92
2023/10/25 01:58:16;;;;;;;10.07;2.83;;;;;;;6.02;100.00;99981.53;4963955;28;20030;-93
2023/10/25 02:00:42;;;;;;;9.85;3.30;;;;;;;5.88;100.00;99960.56;5008856;23;20038;-92
2023/10/25 02:03:07;;;;;;;7.70;3.77;;;;;;;6.01;100.00;99959.44;4995790;28;20455;-93
2023/10/25 02:05:35;;;;;;;11.88;4.03;;;;;;;6.11;100.00;99960.59;4974268;28;20129;-94
2023/10/25 02:08:01;;;;;;;8.63;3.43;;;;;;;6.14;100.00;99949.44;4990449;28;20066;-92
2023/10/25 02:10:33;;;;;;;9.63;3.87;;;;;;;6.34;100.00;99968.28;4981875;28;20336;-92
2023/10/25 02:13:00;;;;;;;8.35;3.85;;;;;;;6.32;100.00;99958.97;4943899;28;20027;-92
2023/10/25 02:15:27;;;;;;;10.55;4.30;;;;;;;6.59;100.00;99984.75;4955040;29;20464;-90
2023/10/25 02:17:53;;;;;;;14.53;3.93;;;;;;;6.68;100.00;99988.59;4953303;28;20071;-88
2023/10/25 02:20:19;;;;;;;11.05;3.88;;;;;;;6.69;100.00;99984.88;4955991;28;20070;-89
2023/10/25 02:22:44;;;;;;;11.67;4.53;;;;;;;6.73;100.00;99985.97;4957148;28;20062;-88
2023/10/25 02:25:09;;;;;;;17.33;4.82;;;;;;;6.73;100.00;99983.31;4974482;28;20031;-88
2023/10/25 02:27:35;;;;;;;11.50;4.90;;;;;;;6.64;100.00;99966.19;4956569;28;20567;-88
2023/10/25 02:30:00;;;;;;;12.93;4.63;;;;;;;6.63;100.00;99965.41;4973659;28;20031;-88
2023/10/25 02:32:25;;;;;;;12.03;4.63;;;;;;;6.63;100.00;99967.22;4974862;28;20077;-89
2023/10/25 02:34:51;;;;;;;8.37;4.20;;;;;;;6.58;100.00;99954.69;4974684;28;20390;-88
2023/10/25 02:37:17;;;;;;;11.27;4.40;;;;;;;6.61;100.00;99961.34;4973139;28;20045;-88
2023/10/25 02:39:42;;;;;;;14.45;4.40;;;;;;;6.63;100.00;99965.41;4970116;28;20491;-89
2023/10/25 02:42:08;;;;;;;13.70;4.53;;;;;;;6.63;100.00;99959.25;4973462;28;20115;-88
2023/10/25 02:44:33;;;;;;;10.30;4.50;;;;;;;6.63;100.00;99948.59;4974111;28;20466;-88
2023/10/25 02:46:59;;;;;;;7.17;4.40;;;;;;;6.65;100.00;99955.28;4971335;28;20030;-88
2023/10/25 02:49:24;;;;;;;8.33;4.13;;;;;;;6.55;100.00;99933.91;4972164;28;20019;-88
2023/10/25 02:51:49;;;;;;;10.00;4.03;;;;;;;6.60;100.00;99947.25;4973326;28;20297;-88
2023/10/25 02:54:16;;;;;;;9.47;3.93;;;;;;;6.45;100.00;99928.50;4974221;28;20066;-89
2023/10/25 02:56:42;;;;;;;16.70;3.97;;;;;;;6.45;100.00;99931.94;4971234;28;20030;-88
2023/10/25 02:59:07;;;;;;;12.20;4.10;;;;;;;6.43;100.00;99923.41;4973216;28;20050;-88
2023/10/25 03:01:32;;;;;;;11.23;3.87;;;;;;;6.43;100.00;99917.28;4973368;28;20629;-89
2023/10/25 03:03:58;;;;;;;6.50;3.60;;;;;;;6.44;100.00;99918.91;4973735;28;20499;-89
2023/10/25 03:06:23;;;;;;;14.47;4.60;;;;;;;6.54;100.00;99923.50;4968581;28;20081;-88
2023/10/25 03:08:48;;;;;;;12.00;4.13;;;;;;;6.60;100.00;99919.81;4954969;28;20041;-89
2023/10/25 03:11:14;;;;;;;8.45;3.80;;;;;;;6.60;100.00;99914.50;4972958;28;20513;-88
2023/10/25 03:13:39;;;;;;;10.77;4.23;;;;;;;6.61;100.00;99905.44;4974827;28;20041;-93
2023/10/25 03:16:05;;;;;;;9.00;3.90;;;;;;;6.64;100.00;99907.63;4971990;28;20042;-89
2023/10/25 03:18:32;;;;;;;8.98;3.92;;;;;;;6.62;100.00;99894.56;4971455;28;20494;-89
2023/10/25 03:21:00;;;;;;;11.70;3.90;;;;;;;6.66;100.00;99894.84;4972649;28;20041;-90
2023/10/25 03:23:26;;;;;;;15.63;4.40;;;;;;;6.70;100.00;99895.97;4947771;29;20303;-90
2023/10/25 03:25:51;;;;;;;12.00;4.43;;;;;;;6.75;100.00;99901.34;4966326;28;20050;-89
2023/10/25 03:28:16;;;;;;;15.67;4.83;;;;;;;6.75;100.00;99882.69;4955397;28;20027;-89
2023/10/25 03:30:41;;;;;;;11.77;4.37;;;;;;;6.77;100.00;99880.53;4975905;28;20126;-89
2023/10/25 03:33:07;;;;;;;10.77;4.40;;;;;;;6.84;100.00;99888.34;4975599;28;20410;-89
2023/10/25 03:35:32;;;;;;;17.03;4.60;;;;;;;6.81;100.00;99884.31;4969056;28;20030;-89
2023/10/25 03:37:57;;;;;;;12.30;4.73;;;;;;;6.90;100.00;99887.31;4971868;28;20550;-89
2023/10/25 03:40:23;;;;;;;12.20;4.50;;;;;;;6.92;100.00;99887.06;4972310;28;20178;-89
2023/10/25 03:42:48;;;;;;;9.37;4.20;;;;;;;6.92;100.00;99887.06;4973290;28;20030;-89
2023/10/25 03:45:13;;;;;;;19.63;4.65;;;;;;;6.88;100.00;99880.63;4970484;28;20097;-90
2023/10/25 03:47:39;;;;;;;7.70;3.87;;;;;;;6.88;100.00;115432.97;4952258;28;20022;-88
2023/10/25 03:50:07;;;;;;;16.07;5.20;;;;;;;-148.15;100.00;116780.44;4965916;28;20471;-88
2023/10/25 03:52:33;;;;;;;12.50;5.35;;;;;;;-148.15;100.00;99880.63;4971721;28;20041;-88
2023/10/25 03:54:58;;;;;;;17.57;4.83;;;;;;;6.88;100.00;99880.63;4971499;28;20039;-89
2023/10/25 03:57:24;;;;;;;17.13;5.57;;;;;;;6.88;100.00;99880.63;4953930;28;20031;-92
2023/10/25 03:59:49;;;;;;;16.23;5.17;;;;;;;6.88;100.00;99880.63;4961918;28;20655;-92
2023/10/25 04:02:15;;;;;;;19.07;5.40;;;;;;;-148.15;100.00;99880.63;4978605;28;20453;-92
2023/10/25 04:04:40;;;;;;;19.60;5.90;;;;;;;-148.15;100.00;61821.78;4974823;28;20026;-92
2023/10/25 04:07:05;;;;;;;24.88;5.40;;;;;;;-148.15;100.00;61821.78;4970544;28;20031;-92
2023/10/25 04:09:31;;;;;;;21.20;5.97;;;;;;;6.88;100.00;99880.63;4973888;28;20467;-92
2023/10/25 04:11:56;;;;;;;25.43;5.63;;;;;;;-148.15;100.00;61821.78;4958884;28;20051;-92
2023/10/25 04:14:21;;;;;;;18.67;5.50;;;;;;;-148.15;100.00;61821.78;4958517;28;20486;-92
2023/10/25 04:16:46;;;;;;;14.57;5.40;;;;;;;-148.15;100.00;61821.78;4971775;28;20041;-92
2023/10/25 04:19:12;;;;;;;20.80;5.67;;;;;;;-148.15;100.00;61821.78;4988558;28;20030;-91
2023/10/25 04:21:37;;;;;;;21.58;6.18;;;;;;;-148.15;100.00;61821.78;4975625;28;20015;-89
2023/10/25 04:24:03;;;;;;;13.43;5.33;;;;;;;-148.15;100.00;61821.78;4974394;28;20394;-91
2023/10/25 04:26:28;;;;;;;16.13;5.68;;;;;;;-148.15;100.00;61821.78;4972814;28;20105;-91
2023/10/25 04:28:55;;;;;;;18.60;5.40;;;;;;;-148.15;100.00;61821.78;4975744;28;20050;-92
2023/10/25 04:31:30;;;;;;;14.30;4.97;;;;;;;-148.15;100.00;61821.78;4975022;28;20042;-93
2023/10/25 04:33:59;;;;;;;17.70;5.13;;;;;;;-148.15;100.00;61821.78;4973488;28;20286;-92
2023/10/25 04:36:31;;;;;;;15.32;5.40;;;;;;;-148.15;100.00;61821.78;4972158;28;20038;-92
2023/10/25 04:38:56;;;;;;;17.92;5.20;;;;;;;-148.15;100.00;61821.78;4973552;28;20034;-94
2023/10/25 04:41:48;;;;;;;15.97;5.00;;;;;;;-148.15;100.00;61821.78;4972963;28;20031;-93
2023/10/25 04:44:14;;;;;;;16.25;5.18;;;;;;;-148.15;100.00;61821.78;4972071;28;20018;-92
2023/10/25 04:46:45;;;;;;;11.37;5.40;;;;;;;-148.15;100.00;61821.78;4973267;28;20030;-89
2023/10/25 04:49:11;;;;;;;14.05;5.13;;;;;;;-148.15;100.00;61821.78;4971413;28;20039;-90
2023/10/25 04:51:36;;;;;;;15.43;5.00;;;;;;;-148.15;100.00;61821.78;4972378;28;20027;-91
2023/10/25 04:54:02;;;;;;;11.90;4.93;;;;;;;-148.15;100.00;61821.78;4972146;28;20624;-91
2023/10/25 04:56:27;;;;;;;14.90;5.30;;;;;;;-148.15;100.00;61821.78;4970695;28;20073;-91
2023/10/25 04:58:52;;;;;;;10.63;4.50;;;;;;;;;;4978869;28;20046;-91
2023/10/25 05:01:30;;;;;;;10.80;4.63;;;;;;;-148.15;100.00;61821.78;4992804;28;20014;-90
2023/10/25 05:04:17;;;;;;;10.47;4.27;;;;;;;-148.15;100.00;61821.78;4991879;28;20345;-90
2023/10/25 05:07:08;;;;;;;9.80;4.35;;;;;;;-148.15;100.00;61821.78;4968689;28;20029;-92
2023/10/25 05:12:58;;;;;;;11.80;4.80;;;;;;;-148.15;100.00;61821.78;4929233;28;20051;-93
2023/10/25 05:15:25;;;;;;;8.17;4.93;;;;;;;-148.15;100.00;61821.78;4970468;28;20046;-92
2023/10/25 05:17:51;;;;;;;12.43;5.15;;;;;;;-148.15;100.00;61821.78;4954858;28;20599;-92
2023/10/25 05:20:38;;;;;;;11.93;5.10;;;;;;;-148.15;100.00;61821.78;4957922;28;20376;-91
2023/10/25 05:23:04;;;;;;;13.18;5.53;;;;;;;-148.15;100.00;61821.78;4934735;29;20037;-92
2023/10/25 05:25:29;;;;;;;13.37;4.57;;;;;;;-148.15;100.00;61821.78;4951666;28;20039;-91
2023/10/25 05:27:55;;;;;;;17.50;5.00;;;;;;;-148.15;100.00;61821.78;4951485;29;20042;-91
2023/10/25 05:30:30;;;;;;;12.20;4.87;;;;;;;-148.15;100.00;61821.78;4930934;29;20067;-91
2023/10/25 05:33:15;;;;;;;10.90;4.63;;;;;;;-148.15;100.00;61821.78;4945354;29;20042;-92
2023/10/25 05:35:44;;;;;;;8.63;4.53;;;;;;;-148.15;100.00;61821.78;4934853;29;20086;-91
2023/10/25 05:38:13;;;;;;;9.80;4.75;;;;;;;-148.15;100.00;61821.78;4934621;29;20391;-91
2023/10/25 05:40:39;;;;;;;13.33;4.87;;;;;;;-148.15;100.00;61821.78;4951653;29;20035;-90
2023/10/25 05:43:12;;;;;;;8.83;4.63;;;;;;;6.88;100.00;99880.63;4950234;28;20312;-90
2023/10/25 05:45:38;;;;;;;12.98;5.20;;;;;;;;;;4951994;29;20039;-89
2023/10/25 05:48:04;;;;;;;13.88;4.55;;;;;;;-148.15;100.00;61821.78;4950917;29;20038;-89
2023/10/25 05:50:36;;;;;;;8.13;4.57;;;;;;;-148.15;100.00;61821.78;4970216;23;20047;-90
2023/10/25 05:53:13;;;;;;;11.90;4.60;;;;;;;-148.15;100.00;61821.78;4941213;28;20022;-91
2023/10/25 05:55:47;;;;;;;12.63;4.40;;;;;;;-148.15;100.00;61821.78;4944799;28;20051;-91
2023/10/25 05:58:17;;;;;;;12.75;4.65;;;;;;;-148.15;100.00;61821.78;4967997;28;20134;-90
2023/10/25 06:04:14;;;;;;;10.32;4.43;;;;;;;-148.15;100.00;61821.78;5008700;28;20147;-90
2023/10/25 06:06:54;;;;;;;13.10;4.78;;;;;;;-148.15;100.00;61821.78;4994929;28;20027;-92
2023/10/25 06:09:26;;;;;;;9.80;4.43;;;;;;;-148.15;100.00;61821.78;4999320;22;20042;-90
2023/10/25 06:11:57;;;;;;;10.27;4.60;;;;;;;-148.15;100.00;61821.78;4946975;28;20346;-89
2023/10/25 06:14:27;;;;;;;8.23;4.38;;;;;;;-148.15;100.00;61821.78;4952852;28;20027;-88
2023/10/25 06:16:59;;;;;;;8.32;4.65;;;;;;;-148.15;100.00;61821.78;4957440;28;20359;-90
2023/10/25 06:19:36;;;;;;;8.18;4.20;;;;;;;-148.15;100.00;61821.78;4981620;28;20037;-89
2023/10/25 06:22:02;;;;;;;7.82;4.43;;;;;;;-148.15;100.00;61821.78;4981516;28;20082;-87
2023/10/25 06:24:27;;;;;;;14.87;4.00;;;;;;;-148.15;100.00;61821.78;4971667;28;20034;-88
2023/10/25 06:26:53;;;;;;;13.03;4.00;;;;;;;-148.15;100.00;61821.78;4969608;28;20023;-88
2023/10/25 06:29:18;;;;;;;9.33;3.97;;;;;;;-148.15;100.00;61821.78;4970873;28;20062;-87
2023/10/25 06:31:50;;;;;;;12.43;4.10;;;;;;;-148.15;100.00;61821.78;4970615;28;20034;-88
2023/10/25 06:34:15;;;;;;;12.60;4.38;;;;;;;-148.15;100.00;61821.78;4971147;28;20031;-87
2023/10/25 06:36:41;;;;;;;11.03;3.80;;;;;;;-148.15;100.00;61821.78;4982257;28;20022;-88
2023/10/25 06:39:07;;;;;;;12.70;4.33;;;;;;;-148.15;100.00;61821.78;4975960;28;20383;-88
2023/10/25 06:41:34;;;;;;;8.00;3.67;;;;;;;-148.15;100.00;61821.78;4970262;28;20285;-87
2023/10/25 06:44:00;;;;;;;11.30;4.10;;;;;;;-148.15;100.00;61821.78;4969854;28;20030;-88
2023/10/25 06:46:26;;;;;;;9.55;3.38;;;;;;;-148.15;100.00;61821.78;4970225;28;20042;-88
2023/10/25 06:48:52;;;;;;;8.40;3.43;;;;;;;-148.15;100.00;61821.78;4969894;28;20015;-88
2023/10/25 06:51:22;;;;;;;10.98;3.67;;;;;;;-148.15;100.00;61821.78;4969786;28;20069;-88
2023/10/25 06:53:47;;;;;;;14.68;3.63;;;;;;;-148.15;100.00;61821.78;4976173;28;20388;-87
2023/10/25 06:56:16;;;;;;;9.93;3.20;;;;;;;-148.15;100.00;61821.78;4973427;28;20030;-87
2023/10/25 06:58:55;;;;;;;7.03;3.17;;;;;;;-148.15;100.00;61821.78;4989631;23;20031;-87
2023/10/25 07:01:27;;;;;;;6.53;3.33;;;;;;;-148.15;100.00;61821.78;4968599;28;20026;-88
2023/10/25 07:03:56;;;;;;;9.63;3.38;;;;;;;-148.15;100.00;61821.78;4972678;28;20058;-86
2023/10/25 07:06:22;;;;;;;5.13;3.58;;;;;;;-148.15;100.00;61821.78;4955614;28;20034;-86
2023/10/25 07:08:48;;;;;;;11.77;3.47;;;;;;;-148.15;100.00;61821.78;4972922;28;20502;-86
2023/10/25 07:11:14;;;;;;;7.43;3.72;;;;;;;-148.15;100.00;61821.78;4953457;28;20035;-86
2023/10/25 07:13:39;;;;;;;7.87;3.63;;;;;;;-148.15;100.00;61821.78;4972515;28;20041;-86
2023/10/25 07:16:06;;;;;;;8.17;3.20;;;;;;;-148.15;100.00;61821.78;4968165;28;20114;-86
2023/10/25 07:18:32;;;;;;;12.05;3.53;;;;;;;-148.15;100.00;61821.78;4954328;28;20019;-86
2023/10/25 07:20:58;;;;;;;5.53;3.30;;;;;;;-148.15;100.00;61821.78;4954185;28;20547;-87
2023/10/25 07:23:24;;;;;;;8.95;3.72;;;;;;;-148.15;100.00;61821.78;4954877;29;20058;-86
2023/10/25 07:25:49;;;;;;;8.88;3.75;;;;;;;-148.15;100.00;61821.78;4952824;28;20063;-86
2023/10/25 07:28:15;;;;;;;4.53;3.63;;;;;;;-148.15;100.00;61821.78;4953174;28;20110;-84
2023/10/25 07:30:41;;;;;;;7.82;3.53;;;;;;;-148.15;100.00;61821.78;4934843;29;20106;-86
2023/10/25 07:33:07;;;;;;;8.00;3.53;;;;;;;-148.15;100.00;61821.78;4934883;29;20032;-85
2023/10/25 07:35:32;;;;;;;7.97;3.88;;;;;;;-148.15;100.00;61821.78;4946121;28;20392;-84
2023/10/25 07:37:57;;;;;;;10.13;3.53;;;;;;;-148.15;100.00;61821.78;4937800;28;20039;-85
2023/10/25 07:40:23;;;;;;;7.53;3.20;;;;;;;-148.15;100.00;61821.78;4961066;28;20668;-85
2023/10/25 07:42:48;;;;;;;8.30;3.47;;;;;;;-148.15;100.00;61821.78;4963166;28;20042;-85
2023/10/25 07:45:13;;;;;;;6.90;3.00;;;;;;;-148.15;100.00;61821.78;4952507;28;20047;-84
2023/10/25 07:47:40;;;;;;;6.10;3.23;;;;;;;-148.15;100.00;61821.78;4954624;29;20110;-85
2023/10/25 07:50:05;;;;;;;7.60;3.70;;;;;;;-148.15;100.00;61821.78;4952764;28;20294;-86
2023/10/25 07:52:33;;;;;;;9.45;3.75;;;;;;;-148.15;100.00;61821.78;4953644;28;20038;-85
2023/10/25 07:54:59;;;;;;;8.23;3.40;;;;;;;-148.15;100.00;61821.78;4944544;29;20027;-85
2023/10/25 07:57:26;;;;;;;8.57;4.17;;;;;;;-148.15;100.00;61821.78;4949583;28;20026;-85
2023/10/25 07:59:51;;;;;;;7.80;4.50;;;;;;;-148.15;100.00;61821.78;4961025;28;20407;-85
2023/10/25 08:02:17;;;;;;;7.93;4.40;;;;;;;-148.15;100.00;61821.78;4948533;29;20036;-84
2023/10/25 08:04:42;;;;;;;11.37;4.13;;;;;;;-148.15;100.00;61821.78;4952005;28;20023;-84
2023/10/25 08:07:07;;;;;;;11.23;4.13;;;;;;;-148.15;100.00;61821.78;4951248;28;20506;-85
2023/10/25 08:09:35;;;;;;;10.13;4.10;;;;;;;-148.15;100.00;61821.78;4957804;28;20035;-85
2023/10/25 08:12:00;;;;;;;13.40;3.90;;;;;;;-148.15;100.00;61821.78;4945712;29;20051;-86
2023/10/25 08:14:26;;;;;;;9.33;3.93;;;;;;;-148.15;100.00;61821.78;4956306;28;20066;-86
2023/10/25 08:16:51;;;;;;;8.50;3.80;;;;;;;-148.15;100.00;61821.78;4942259;29;20038;-85
2023/10/25 08:19:16;;;;;;;12.27;3.73;;;;;;;-148.15;100.00;61821.78;4952010;29;20027;-86
2023/10/25 08:21:42;;;;;;;8.53;3.60;;;;;;;-148.15;100.00;61821.78;4952044;28;20019;-84
2023/10/25 08:24:07;;;;;;;6.73;3.20;;;;;;;-148.15;100.00;61821.78;4952313;28;20035;-85
2023/10/25 08:26:39;;;;;;;6.35;3.20;;;;;;;-148.15;100.00;61821.78;4946230;28;20476;-85
2023/10/25 08:29:05;;;;;;;9.00;3.50;;;;;;;-148.15;100.00;61821.78;4951441;29;20062;-85
2023/10/25 08:31:31;;;;;;;11.88;6.78;;;;;;;-148.15;100.00;61821.78;4953421;28;20039;-84
2023/10/25 08:33:56;;;;;;;7.33;3.80;;;;;;;-148.15;100.00;61821.78;4951381;29;20030;-85
2023/10/25 08:36:22;;;;;;;7.82;3.58;;;;;;;-148.15;100.00;61821.78;4949545;28;20085;-85
2023/10/25 08:38:47;;;;;;;3.83;2.80;;;;;;;-148.15;100.00;61821.78;4952274;28;20027;-86
2023/10/25 08:41:12;;;;;;;8.87;2.77;;;;;;;-148.15;100.00;61821.78;4943208;28;20038;-85
2023/10/25 08:43:40;;;;;;;4.60;2.63;;;;;;;-148.15;100.00;61821.78;4952201;28;20118;-86
2023/10/25 08:46:05;;;;;;;9.93;2.67;;;;;;;-148.15;100.00;61821.78;4952059;28;20447;-86
2023/10/25 08:48:32;;;;;;;8.43;2.70;;;;;;;-148.15;100.00;61821.78;4952603;28;20170;-86
2023/10/25 08:50:59;;;;;;;9.63;3.33;;;;;;;-148.15;100.00;61821.78;4953151;28;20086;-86
2023/10/25 08:53:26;;;;;;;9.15;2.92;;;;;;;-148.15;100.00;61821.78;4952224;29;20471;-86
2023/10/25 08:55:56;;;;;;;6.45;3.10;;;;;;;-148.15;100.00;61821.78;4952826;29;20059;-86
2023/10/25 08:58:26;;;;;;;3.60;2.75;;;;;;;-148.15;100.00;61821.78;4945348;28;20167;-86
2023/10/25 09:00:54;;;;;;;5.37;2.97;;;;;;;-148.15;100.00;61821.78;4954075;28;20031;-87
2023/10/25 09:03:31;;;;;;;8.82;3.50;;;;;;;-148.15;100.00;61821.78;4953772;28;20054;-86
2023/10/25 09:06:00;;;;;;;8.27;3.88;;;;;;;-148.15;100.00;61821.78;4933423;29;20099;-85
2023/10/25 09:08:26;;;;;;;10.15;3.50;;;;;;;-148.15;100.00;61821.78;4946526;29;20034;-86
2023/10/25 09:11:01;;;;;;;6.15;3.38;;;;;;;-148.15;100.00;61821.78;4952453;28;20049;-86
2023/10/25 09:13:27;;;;;;;10.30;4.00;;;;;;;-148.15;100.00;61821.78;4966562;28;20517;-85
2023/10/25 09:16:06;;;;;;;9.27;4.27;;;;;;;-148.15;100.00;61821.78;4954382;28;20365;-86
2023/10/25 09:18:33;;;;;;;6.85;4.20;;;;;;;-148.15;100.00;61821.78;4947471;28;20036;-86
2023/10/25 09:20:59;;;;;;;7.32;4.88;;;;;;;-148.15;100.00;61821.78;4951737;29;20050;-86
2023/10/25 09:23:24;;;;;;;9.43;6.30;;;;;;;-148.15;100.00;61821.78;4948053;28;20562;-85
2023/10/25 09:25:50;;;;;;;8.30;5.40;;;;;;;-148.15;100.00;61821.78;4951760;28;20043;-87
2023/10/25 09:28:29;;;;;;;10.13;6.27;;;;;;;-148.15;100.00;61821.78;4943037;28;20103;-89
2023/10/25 09:30:55;;;;;;;14.18;7.65;;;;;;;-148.15;100.00;61821.78;4945663;29;20043;-86
2023/10/25 09:33:22;;;;;;;13.43;8.30;;;;;;;-148.15;100.00;61821.78;4950539;28;20030;-87
2023/10/25 09:35:48;;;;;;;9.80;5.22;;;;;;;-148.15;100.00;61821.78;4950878;29;20023;-86
2023/10/25 09:38:14;;;;;;;10.27;5.50;;;;;;;-148.15;100.00;61821.78;4959969;28;20027;-85
2023/10/25 09:40:41;;;;;;;10.43;5.63;;;;;;;-148.15;100.00;61821.78;4971431;28;20061;-86
2023/10/25 09:43:13;;;;;;;9.93;5.70;;;;;;;-148.15;100.00;61821.78;4958765;28;20027;-86
2023/10/25 09:45:42;;;;;;;9.43;5.60;;;;;;;-148.15;100.00;61821.78;4951331;29;20118;-87
2023/10/25 09:48:11;;;;;;;11.68;5.93;;;;;;;-148.15;100.00;61821.78;4951463;28;20063;-87
2023/10/25 09:50:41;;;;;;;8.47;5.63;;;;;;;-148.15;100.00;61821.78;4957011;28;20035;-87
2023/10/25 09:53:33;;;;;;;13.30;5.67;;;;;;;-148.15;100.00;61821.78;4952008;29;20314;-86
2023/10/25 09:56:02;;;;;;;20.35;7.25;;;;;;;-148.15;100.00;61821.78;4951074;29;20039;-88
2023/10/25 09:58:32;;;;;;;13.40;7.00;;;;;;;-148.15;100.00;61821.78;4952199;28;20028;-86
2023/10/25 10:00:59;;;;;;;18.83;7.10;;;;;;;-148.15;100.00;61821.78;4950240;28;20046;-87
2023/10/25 10:03:33;;;;;;;14.98;7.45;;;;;;;-148.15;100.00;61821.78;4948003;29;20020;-86
2023/10/25 10:06:08;;;;;;;16.30;7.33;;;;;;;-148.15;100.00;61821.78;4950698;29;20118;-87
2023/10/25 10:08:52;;;;;;;19.90;8.00;;;;;;;-148.15;100.00;61821.78;4948969;28;20317;-88
2023/10/25 10:11:24;;;;;;;13.15;7.88;;;;;;;-148.15;100.00;61821.78;4947994;29;20031;-87
2023/10/25 10:14:28;;;;;;;26.67;8.02;;;;;;;-148.15;100.00;61821.78;4950253;29;20078;-87
2023/10/25 10:17:03;;;;;;;18.83;7.60;;;;;;;-148.15;100.00;61821.78;4948598;28;20050;-89
2023/10/25 10:19:30;;;;;;;16.75;8.10;;;;;;;-148.15;100.00;61821.78;4948323;28;20035;-88
2023/10/25 10:22:11;;;;;;;17.98;8.90;;;;;;;-148.15;100.00;61821.78;4952099;28;20066;-88
2023/10/25 10:24:53;;;;;;;13.93;7.67;;;;;;;-148.15;100.00;61821.78;4947935;28;20027;-89
2023/10/25 10:29:47;;;;;;;13.50;7.50;;;;;;;-148.15;100.00;61821.78;4983381;28;20054;-88
2023/10/25 10:32:13;;;;;;;29.92;7.53;;;;;;;-148.15;100.00;61821.78;4994061;28;20041;-87
2023/10/25 10:34:50;;;;;;;16.83;6.55;;;;;;;-148.15;100.00;61821.78;4993797;28;20080;-88
2023/10/25 10:37:17;;;;;;;19.73;7.47;;;;;;;-148.15;100.00;61821.78;4972812;28;20026;-87
2023/10/25 10:39:58;;;;;;;11.60;6.20;;;;;;;-148.15;100.00;61821.78;4971547;28;20669;-88
2023/10/25 10:42:29;;;;;;;13.43;7.10;;;;;;;-148.15;100.00;61821.78;4975554;28;20066;-88
2023/10/25 10:44:55;;;;;;;10.68;6.80;;;;;;;-148.15;100.00;61821.78;4974119;28;20038;-88
2023/10/25 10:47:41;;;;;;;16.98;7.07;;;;;;;-148.15;100.00;61821.78;4957067;28;20062;-87
2023/10/25 10:50:21;;;;;;;9.88;6.30;;;;;;;-148.15;100.00;61821.78;4973989;28;20042;-87
2023/10/25 10:52:48;;;;;;;13.17;7.20;;;;;;;-148.15;100.00;61821.78;4956565;28;20122;-90
2023/10/25 10:55:19;;;;;;;19.75;6.90;;;;;;;-148.15;100.00;61821.78;4972487;28;20026;-87
2023/10/25 10:57:45;;;;;;;10.75;6.25;;;;;;;-148.15;100.00;61821.78;4972999;28;20038;-87
2023/10/25 11:00:13;;;;;;;15.77;7.10;;;;;;;-148.15;100.00;61821.78;4973083;28;20034;-88
2023/10/25 11:02:44;;;;;;;19.93;6.80;;;;;;;-148.15;100.00;61821.78;4953732;28;20039;-88
2023/10/25 11:05:09;;;;;;;8.93;6.15;;;;;;;-148.15;100.00;61821.78;4969851;28;20039;-87
2023/10/25 11:07:34;;;;;;;11.87;6.40;;;;;;;-148.15;100.00;61821.78;4970003;28;20041;-88
2023/10/25 11:10:00;;;;;;;17.73;6.72;;;;;;;-148.15;100.00;61821.78;4978885;28;20057;-90
2023/10/25 11:12:26;;;;;;;10.13;5.40;;;;;;;-148.15;100.00;61821.78;4980866;28;20027;-88
2023/10/25 11:14:52;;;;;;;8.77;6.07;;;;;;;-148.15;100.00;61821.78;4984125;28;20041;-88
2023/10/25 11:17:17;;;;;;;12.43;5.80;;;;;;;-148.15;100.00;61821.78;4957023;28;20018;-88
2023/10/25 11:19:47;;;;;;;9.77;5.97;;;;;;;-148.15;100.00;61821.78;4972994;28;20019;-88
2023/10/25 11:22:14;;;;;;;14.05;6.47;;;;;;;-148.15;100.00;61821.78;4973423;28;20030;-87
2023/10/25 11:24:40;;;;;;;15.40;6.77;;;;;;;-148.15;100.00;61821.78;4972822;28;20019;-88
2023/10/25 11:27:06;;;;;;;9.20;6.10;;;;;;;-148.15;100.00;61821.78;4973071;28;20026;-88
2023/10/25 11:29:32;;;;;;;16.45;6.15;;;;;;;-148.15;100.00;61821.78;4965431;28;20038;-87
2023/10/25 11:32:01;;;;;;;10.80;5.95;;;;;;;-148.15;100.00;61821.78;4971107;28;20030;-87
2023/10/25 11:34:32;;;;;;;10.63;5.57;;;;;;;-148.15;100.00;61821.78;4971588;28;20047;-86
2023/10/25 11:36:59;;;;;;;12.30;5.23;;;;;;;-148.15;100.00;61821.78;4972779;28;20038;-86